createdAt,value
2023-02-18T00:02:07.134Z,99775.50
2023-02-18T00:04:35.859Z,99774.44
2023-02-18T00:07:04.447Z,99775.72
2023-02-18T00:09:33.837Z,99765.66
2023-02-18T00:12:02.484Z,99760.34
2023-02-18T00:14:31.107Z,99765.53
2023-02-18T00:17:00.531Z,99767.66
2023-02-18T00:19:33.051Z,99768.97
2023-02-18T00:22:02.591Z,99776.88
2023-02-18T00:24:31.250Z,99778.78
2023-02-18T00:26:59.867Z,99771.66
2023-02-18T00:29:29.376Z,99762.84
2023-02-18T00:31:58.921Z,99748.72
2023-02-18T00:34:27.759Z,99752.78
2023-02-18T00:36:56.967Z,99743.00
2023-02-18T00:39:26.443Z,99734.25
2023-02-18T00:41:55.053Z,99732.34
2023-02-18T00:44:23.738Z,99726.19
2023-02-18T00:46:53.468Z,99735.19
2023-02-18T00:49:22.064Z,99738.66
2023-02-18T00:51:51.447Z,99733.09
2023-02-18T00:54:20.054Z,99737.13
2023-02-18T00:56:48.798Z,99739.16
2023-02-18T00:59:17.534Z,99731.94
2023-02-18T01:01:46.187Z,99737.50
2023-02-18T01:04:14.910Z,99726.38
2023-02-18T01:06:43.606Z,99731.66
2023-02-18T01:09:13.064Z,99726.56
2023-02-18T01:11:41.688Z,99735.75
2023-02-18T01:14:10.307Z,99729.03
2023-02-18T01:16:38.938Z,99726.47
2023-02-18T01:19:06.633Z,99732.75
2023-02-18T01:21:34.366Z,99734.97
2023-02-18T01:24:02.060Z,99734.94
2023-02-18T01:26:32.659Z,99716.94
2023-02-18T01:29:00.319Z,99716.72
2023-02-18T01:31:28.068Z,99726.97
2023-02-18T01:33:57.585Z,99710.81
2023-02-18T01:36:25.274Z,99715.44
2023-02-18T01:38:53.816Z,99716.59
2023-02-18T01:41:22.043Z,99724.38
2023-02-18T01:43:49.726Z,99726.84
2023-02-18T01:46:22.765Z,99720.91
2023-02-18T01:48:52.021Z,99725.53
2023-02-18T01:52:00.910Z,99718.97
2023-02-18T01:54:45.002Z,99711.44
2023-02-18T01:57:35.417Z,99721.69
2023-02-18T02:00:17.981Z,99723.59
2023-02-18T02:02:49.565Z,99726.06
2023-02-18T02:05:20.358Z,99714.22
2023-02-18T02:07:52.713Z,99717.66
2023-02-18T02:10:21.252Z,99708.81
2023-02-18T02:13:26.878Z,99710.75
2023-02-18T02:16:50.027Z,99700.31
2023-02-18T02:19:51.950Z,99692.09
2023-02-18T02:22:41.360Z,99687.56
2023-02-18T02:25:54.856Z,99688.00
2023-02-18T02:29:19.384Z,99677.31
2023-02-18T02:32:29.710Z,99693.78
2023-02-18T02:35:09.956Z,99686.53
2023-02-18T02:37:54.631Z,99690.44
2023-02-18T02:40:47.503Z,99700.53
2023-02-18T02:43:46.777Z,99692.16
2023-02-18T02:46:40.609Z,99693.25
2023-02-18T02:49:55.110Z,99694.69
2023-02-18T02:52:50.237Z,99705.34
2023-02-18T02:55:17.948Z,99695.78
2023-02-18T02:57:52.656Z,99689.59
2023-02-18T03:01:18.639Z,99713.19
2023-02-18T03:04:43.561Z,99714.25
2023-02-18T03:07:44.746Z,99721.69
2023-02-18T03:10:50.949Z,62182.44
2023-02-18T03:14:05.547Z,62182.44
2023-02-18T03:17:03.768Z,62182.44
2023-02-18T03:19:43.456Z,99721.69
2023-02-18T03:22:19.108Z,99724.44
2023-02-18T03:24:55.224Z,99740.16
2023-02-18T03:27:53.357Z,99730.47
2023-02-18T03:30:53.678Z,99733.16
2023-02-18T03:33:33.872Z,99725.63
2023-02-18T03:36:02.638Z,99725.75
2023-02-18T03:38:43.022Z,99730.72
2023-02-18T03:41:11.294Z,99728.69
2023-02-18T03:43:41.811Z,62182.44
2023-02-18T03:46:10.566Z,62182.44
2023-02-18T03:48:38.468Z,62182.44
2023-02-18T03:51:07.011Z,62182.44
2023-02-18T03:53:34.630Z,62182.44
2023-02-18T03:56:02.249Z,62182.44
2023-02-18T03:58:30.755Z,62182.44
2023-02-18T04:00:58.509Z,62182.44
2023-02-18T04:03:26.225Z,62182.44
2023-02-18T04:05:53.810Z,62182.44
2023-02-18T04:08:21.479Z,62182.44
2023-02-18T04:10:49.945Z,62182.44
2023-02-18T04:13:18.587Z,62182.44
2023-02-18T04:15:48.815Z,99728.69
2023-02-18T04:18:16.440Z,99728.97
2023-02-18T04:20:44.510Z,99741.50
2023-02-18T04:23:12.432Z,99735.53
2023-02-18T04:25:40.239Z,99741.66
2023-02-18T04:28:08.251Z,62182.44
2023-02-18T04:30:36.031Z,62182.44
2023-02-18T04:33:03.723Z,62182.44
2023-02-18T04:35:31.456Z,62182.44
2023-02-18T04:37:59.909Z,99741.66
2023-02-18T04:40:30.749Z,99744.09
2023-02-18T04:43:02.717Z,99753.13
2023-02-18T04:45:31.543Z,99746.88
2023-02-18T04:47:59.353Z,99755.06
2023-02-18T04:50:27.154Z,99758.31
2023-02-18T04:52:54.802Z,99758.66
2023-02-18T04:55:22.466Z,99762.97
2023-02-18T04:57:50.163Z,99754.88
2023-02-18T05:00:20.650Z,99767.09
2023-02-18T05:02:48.956Z,99760.47
2023-02-18T05:05:17.088Z,99765.72
2023-02-18T05:07:44.791Z,99758.50
2023-02-18T05:10:18.813Z,99763.50
2023-02-18T05:12:46.531Z,99762.09
2023-02-18T05:15:14.227Z,99766.19
2023-02-18T05:17:41.888Z,99778.06
2023-02-18T05:20:10.770Z,99788.19
2023-02-18T05:22:39.146Z,99788.97
2023-02-18T05:25:07.655Z,99802.00
2023-02-18T05:27:35.374Z,99800.75
2023-02-18T05:30:03.262Z,99807.00
2023-02-18T05:32:30.949Z,99797.78
2023-02-18T05:34:58.595Z,99800.25
2023-02-18T05:37:26.266Z,99797.47
2023-02-18T05:39:53.942Z,99803.81
2023-02-18T05:42:21.642Z,99806.06
2023-02-18T05:44:49.484Z,99818.25
2023-02-18T05:47:17.414Z,99820.75
2023-02-18T05:49:45.349Z,99823.94
2023-02-18T05:52:13.112Z,99829.00
2023-02-18T05:54:41.001Z,99830.28
2023-02-18T05:57:08.891Z,99846.09
2023-02-18T05:59:36.564Z,99841.06
2023-02-18T06:02:05.125Z,99844.69
2023-02-18T06:04:33.788Z,99843.31
2023-02-18T06:07:01.551Z,99856.50
2023-02-18T06:09:30.095Z,99863.03
2023-02-18T06:11:58.714Z,99867.69
2023-02-18T06:14:26.573Z,99868.56
2023-02-18T06:16:54.222Z,99868.06
2023-02-18T06:19:21.948Z,99876.06
2023-02-18T06:21:49.726Z,99888.09
2023-02-18T06:24:17.379Z,99896.94
2023-02-18T06:26:45.158Z,99887.34
2023-02-18T06:29:12.867Z,99891.75
2023-02-18T06:31:44.127Z,99894.25
2023-02-18T06:34:11.811Z,99884.03
2023-02-18T06:36:40.551Z,99899.84
2023-02-18T06:39:08.780Z,99916.34
2023-02-18T06:41:36.579Z,99899.97
2023-02-18T06:44:04.870Z,99924.63
2023-02-18T06:46:32.604Z,99920.03
2023-02-18T06:49:00.544Z,99921.44
2023-02-18T06:51:28.249Z,99912.59
2023-02-18T06:53:55.899Z,99910.63
2023-02-18T06:56:27.115Z,99912.09
2023-02-18T06:58:54.825Z,99916.31
2023-02-18T07:01:23.272Z,99907.19
2023-02-18T07:03:51.750Z,99901.34
2023-02-18T07:06:19.428Z,99902.25
2023-02-18T07:08:47.105Z,99896.47
2023-02-18T07:11:14.752Z,99904.84
2023-02-18T07:13:42.407Z,99894.47
2023-02-18T07:16:10.278Z,99905.69
2023-02-18T07:18:38.163Z,99900.94
2023-02-18T07:21:06.008Z,99909.47
2023-02-18T07:23:33.666Z,99917.66
2023-02-18T07:26:11.700Z,99912.06
2023-02-18T07:28:40.072Z,99905.47
2023-02-18T07:31:08.784Z,99903.00
2023-02-18T07:33:36.773Z,99910.44
2023-02-18T07:36:05.648Z,99907.53
2023-02-18T07:38:33.432Z,99919.28
2023-02-18T07:41:01.317Z,99904.50
2023-02-18T07:43:29.103Z,99929.09
2023-02-18T07:45:56.787Z,99923.38
2023-02-18T07:48:24.641Z,99916.91
2023-02-18T07:50:52.303Z,99926.47
2023-02-18T07:53:20.063Z,99913.97
2023-02-18T07:55:50.421Z,99920.38
2023-02-18T07:58:32.262Z,99922.59
2023-02-18T08:01:02.318Z,99922.06
2023-02-18T08:03:33.207Z,99918.88
2023-02-18T08:06:04.296Z,99922.13
2023-02-18T08:08:35.188Z,99926.31
2023-02-18T08:11:18.406Z,99926.34
2023-02-18T08:13:48.470Z,99922.69
2023-02-18T08:16:19.618Z,99923.13
2023-02-18T08:18:48.642Z,99916.53
2023-02-18T08:21:20.316Z,99913.78
2023-02-18T08:23:48.728Z,99921.47
2023-02-18T08:26:17.095Z,99922.56
2023-02-18T08:28:46.771Z,99921.97
2023-02-18T08:31:27.736Z,99916.47
2023-02-18T08:33:59.060Z,99923.97
2023-02-18T08:36:28.180Z,99921.88
2023-02-18T08:38:56.066Z,99928.31
2023-02-18T08:41:24.060Z,99925.66
2023-02-18T08:43:51.738Z,99915.38
2023-02-18T08:46:31.526Z,99912.25
2023-02-18T08:49:03.973Z,99925.88
2023-02-18T08:51:31.943Z,99915.59
2023-02-18T08:53:59.728Z,99918.38
2023-02-18T08:56:27.672Z,99924.75
2023-02-18T08:58:55.377Z,99925.84
2023-02-18T09:01:23.151Z,99936.25
2023-02-18T09:03:52.674Z,99926.09
2023-02-18T09:06:24.143Z,99923.56
2023-02-18T09:08:53.754Z,99917.22
2023-02-18T09:11:21.663Z,99911.19
2023-02-18T09:13:49.271Z,99919.03
2023-02-18T09:16:19.522Z,99907.09
2023-02-18T09:18:49.452Z,99906.72
2023-02-18T09:21:20.844Z,99919.88
2023-02-18T09:23:51.409Z,99918.25
2023-02-18T09:26:26.328Z,99911.28
2023-02-18T09:28:57.231Z,99911.78
2023-02-18T09:31:28.565Z,99903.13
2023-02-18T09:34:02.376Z,99910.97
2023-02-18T09:36:30.540Z,99892.47
2023-02-18T09:38:59.448Z,99906.59
2023-02-18T09:41:44.324Z,99908.06
2023-02-18T09:44:45.492Z,99908.69
2023-02-18T09:47:29.977Z,99904.50
2023-02-18T09:50:27.250Z,99905.41
2023-02-18T09:52:55.283Z,99904.72
2023-02-18T09:55:42.362Z,99914.31
2023-02-18T09:58:28.317Z,99911.28
2023-02-18T10:01:38.504Z,99904.97
2023-02-18T10:04:23.930Z,99899.66
2023-02-18T10:06:55.391Z,99894.19
2023-02-18T10:09:42.122Z,99913.41
2023-02-18T10:12:20.653Z,99907.13
2023-02-18T10:15:01.471Z,99907.72
2023-02-18T10:17:34.342Z,99915.97
2023-02-18T10:20:07.808Z,99906.81
2023-02-18T10:22:38.561Z,99908.84
2023-02-18T10:25:07.875Z,99916.44
2023-02-18T10:27:39.630Z,99907.50
2023-02-18T10:30:16.011Z,99896.31
2023-02-18T10:32:47.636Z,99897.47
2023-02-18T10:35:24.055Z,99889.66
2023-02-18T10:38:07.664Z,99880.09
2023-02-18T10:41:00.137Z,99879.34
2023-02-18T10:44:04.835Z,99884.84
2023-02-18T10:46:44.294Z,99884.22
2023-02-18T10:49:41.845Z,99881.72
2023-02-18T10:52:19.107Z,99879.91
2023-02-18T10:55:19.085Z,99881.81
2023-02-18T10:57:57.871Z,99871.81
2023-02-18T11:00:28.183Z,99864.31
2023-02-18T11:03:20.197Z,99866.06
2023-02-18T11:05:56.276Z,99862.09
2023-02-18T11:08:43.067Z,99859.53
2023-02-18T11:11:32.714Z,99866.94
2023-02-18T11:14:05.154Z,99870.03
2023-02-18T11:16:45.751Z,99865.50
2023-02-18T11:19:35.621Z,99863.41
2023-02-18T11:22:21.627Z,99864.66
2023-02-18T11:24:54.390Z,99854.19
2023-02-18T11:27:30.760Z,99855.19
2023-02-18T11:30:07.381Z,99844.41
2023-02-18T11:32:37.774Z,99850.44
2023-02-18T11:35:06.831Z,99846.53
2023-02-18T11:37:38.412Z,99835.03
2023-02-18T11:40:07.767Z,99823.91
2023-02-18T11:42:35.638Z,99826.44
2023-02-18T11:45:05.822Z,99833.22
2023-02-18T11:47:38.197Z,99825.41
2023-02-18T11:50:17.727Z,99821.38
2023-02-18T11:52:50.868Z,99818.56
2023-02-18T11:55:26.078Z,99813.50
2023-02-18T11:58:05.303Z,99823.13
2023-02-18T12:00:57.415Z,99817.59
2023-02-18T12:03:57.255Z,99806.47
2023-02-18T12:07:02.441Z,99799.84
2023-02-18T12:09:43.682Z,99798.63
2023-02-18T12:12:36.599Z,99791.25
2023-02-18T12:15:04.603Z,99785.09
2023-02-18T12:18:33.169Z,99766.03
2023-02-18T12:21:36.811Z,99769.84
2023-02-18T12:24:42.066Z,99767.78
2023-02-18T12:27:48.533Z,99758.78
2023-02-18T12:31:07.633Z,99758.00
2023-02-18T12:34:44.026Z,99770.84
2023-02-18T12:38:15.630Z,99753.97
2023-02-18T12:41:01.631Z,99754.09
2023-02-18T12:43:58.303Z,99743.91
2023-02-18T12:47:27.168Z,99743.53
2023-02-18T12:49:57.718Z,99732.97
2023-02-18T12:53:14.804Z,99724.59
2023-02-18T12:56:20.028Z,99726.56
2023-02-18T13:00:04.477Z,99719.88
2023-02-18T13:03:09.955Z,99721.13
2023-02-18T13:06:42.367Z,99713.25
2023-02-18T13:09:42.791Z,99708.72
2023-02-18T13:12:35.167Z,99713.03
2023-02-18T13:15:23.895Z,99713.13
2023-02-18T13:17:58.292Z,99705.59
2023-02-18T13:20:46.935Z,99694.56
2023-02-18T13:23:38.891Z,99693.00
2023-02-18T13:26:12.417Z,99693.22
2023-02-18T13:29:25.026Z,99690.88
2023-02-18T13:32:53.465Z,99676.16
2023-02-18T13:36:11.547Z,99664.34
2023-02-18T13:39:11.589Z,99657.53
2023-02-18T13:41:43.770Z,99665.09
2023-02-18T13:44:23.285Z,99665.59
2023-02-18T13:46:58.252Z,99660.53
2023-02-18T13:49:34.651Z,99655.41
2023-02-18T13:52:05.571Z,99651.63
2023-02-18T13:54:59.471Z,99646.72
2023-02-18T13:57:28.919Z,99650.94
2023-02-18T14:00:06.303Z,99633.25
2023-02-18T14:02:36.891Z,99632.63
2023-02-18T14:05:24.577Z,99632.78
2023-02-18T14:08:33.606Z,99621.53
2023-02-18T14:11:40.718Z,99635.59
2023-02-18T14:14:28.016Z,99623.09
2023-02-18T14:17:20.557Z,99614.19
2023-02-18T14:20:02.330Z,99610.56
2023-02-18T14:22:51.576Z,99604.91
2023-02-18T14:25:40.034Z,99593.41
2023-02-18T14:28:36.214Z,99590.34
2023-02-18T14:31:30.985Z,99582.47
2023-02-18T14:34:25.555Z,99575.34
2023-02-18T14:37:17.427Z,99575.53
2023-02-18T14:40:26.332Z,99573.22
2023-02-18T14:43:46.133Z,99552.44
2023-02-18T14:46:54.884Z,99550.69
2023-02-18T14:49:42.367Z,99562.09
2023-02-18T14:52:39.308Z,99554.03
2023-02-18T14:55:17.145Z,99552.72
2023-02-18T14:57:55.113Z,99559.03
2023-02-18T15:00:32.482Z,99545.00
2023-02-18T15:03:02.558Z,99552.28
2023-02-18T15:05:38.156Z,99546.16
2023-02-18T15:08:23.016Z,99540.41
2023-02-18T15:11:09.213Z,99540.16
2023-02-18T15:13:44.470Z,99535.03
2023-02-18T15:16:43.278Z,99533.63
2023-02-18T15:19:21.340Z,99525.72
2023-02-18T15:21:53.657Z,99524.13
2023-02-18T15:24:39.006Z,99520.41
2023-02-18T15:27:25.868Z,99519.78
2023-02-18T15:30:25.361Z,99526.91
2023-02-18T15:33:00.299Z,99526.38
2023-02-18T15:35:33.509Z,99530.44
2023-02-18T15:38:04.644Z,99529.22
2023-02-18T15:40:38.244Z,99525.44
2023-02-18T15:43:08.567Z,99525.44
2023-02-18T15:45:44.222Z,99511.50
2023-02-18T15:48:43.188Z,99516.13
2023-02-18T15:51:18.099Z,99513.84
2023-02-18T15:53:53.038Z,99516.97
2023-02-18T15:56:39.273Z,99519.88
2023-02-18T15:59:28.377Z,99514.28
2023-02-18T16:02:19.859Z,99520.56
2023-02-18T16:04:58.445Z,99500.13
2023-02-18T16:07:32.235Z,99507.91
2023-02-18T16:10:36.341Z,99503.28
2023-02-18T16:13:06.786Z,99514.25
2023-02-18T16:15:44.379Z,99517.97
2023-02-18T16:18:41.433Z,99517.97
2023-02-18T16:21:19.100Z,99534.84
2023-02-18T16:24:00.462Z,99526.13
2023-02-18T16:26:44.698Z,99531.72
2023-02-18T16:29:45.888Z,99525.94
2023-02-18T16:32:15.437Z,99526.81
2023-02-18T16:34:44.150Z,99513.81
2023-02-18T16:37:32.228Z,99516.41
2023-02-18T16:40:01.877Z,99512.69
2023-02-18T16:42:31.101Z,99517.31
2023-02-18T16:45:00.626Z,99512.25
2023-02-18T16:47:30.096Z,99507.50
2023-02-18T16:50:00.017Z,99511.94
2023-02-18T16:52:29.441Z,99514.75
2023-02-18T16:54:58.868Z,99506.13
2023-02-18T16:57:27.493Z,99512.09
2023-02-18T16:59:56.896Z,99521.13
2023-02-18T17:02:26.870Z,99516.69
2023-02-18T17:04:57.558Z,99515.88
2023-02-18T17:07:27.173Z,99522.56
2023-02-18T17:09:57.592Z,99513.44
2023-02-18T17:12:27.286Z,99511.81
2023-02-18T17:14:56.809Z,99523.44
2023-02-18T17:17:28.023Z,99523.19
2023-02-18T17:19:57.471Z,99518.88
2023-02-18T17:22:26.912Z,99524.31
2023-02-18T17:24:54.644Z,99525.00
2023-02-18T17:27:24.186Z,99528.66
2023-02-18T17:29:53.785Z,99519.44
2023-02-18T17:32:23.297Z,99524.97
2023-02-18T17:34:51.030Z,99510.13
2023-02-18T17:37:20.469Z,99513.22
2023-02-18T17:39:49.996Z,99511.59
2023-02-18T17:42:21.279Z,99514.66
2023-02-18T17:44:50.828Z,99505.56
2023-02-18T17:47:18.691Z,99511.59
2023-02-18T17:49:48.319Z,99511.41
2023-02-18T17:52:36.367Z,99497.50
2023-02-18T17:55:26.763Z,99502.56
2023-02-18T17:57:58.301Z,99499.13
2023-02-18T18:00:40.555Z,99499.69
2023-02-18T18:03:14.937Z,99480.94
2023-02-18T18:05:49.272Z,99484.09
2023-02-18T18:08:20.024Z,99498.72
2023-02-18T18:10:57.279Z,99498.25
2023-02-18T18:13:32.454Z,99496.81
2023-02-18T18:16:02.171Z,99489.72
2023-02-18T18:18:29.932Z,99494.91
2023-02-18T18:21:01.939Z,99489.38
2023-02-18T18:23:35.715Z,99497.75
2023-02-18T18:26:05.518Z,99491.47
2023-02-18T18:28:37.531Z,99490.88
2023-02-18T18:31:11.162Z,99487.84
2023-02-18T18:33:41.680Z,99508.13
2023-02-18T18:36:11.487Z,99494.34
2023-02-18T18:38:41.233Z,99488.97
2023-02-18T18:41:22.949Z,99494.44
2023-02-18T18:43:52.622Z,99492.44
2023-02-18T18:46:20.446Z,99494.53
2023-02-18T18:48:50.201Z,99495.78
2023-02-18T18:51:28.988Z,99494.16
2023-02-18T18:53:58.595Z,99496.06
2023-02-18T18:56:26.371Z,99503.91
2023-02-18T18:58:56.220Z,99499.03
2023-02-18T19:01:27.357Z,99485.31
2023-02-18T19:03:57.169Z,99487.41
2023-02-18T19:06:26.727Z,99494.13
2023-02-18T19:08:57.094Z,99501.81
2023-02-18T19:11:26.622Z,99498.81
2023-02-18T19:13:54.438Z,99487.34
2023-02-18T19:16:38.805Z,99494.53
2023-02-18T19:19:11.701Z,99495.41
2023-02-18T19:21:41.901Z,99498.25
2023-02-18T19:24:11.474Z,99498.53
2023-02-18T19:26:41.084Z,99492.88
2023-02-18T19:29:10.666Z,99507.66
2023-02-18T19:31:40.425Z,99506.97
2023-02-18T19:34:12.910Z,99514.28
2023-02-18T19:36:45.142Z,99513.38
2023-02-18T19:39:14.734Z,99500.59
2023-02-18T19:41:44.336Z,99513.44
2023-02-18T19:44:13.847Z,99503.25
2023-02-18T19:46:43.405Z,99509.59
2023-02-18T19:49:11.120Z,99512.13
2023-02-18T19:51:40.683Z,99516.66
2023-02-18T19:54:13.042Z,99520.50
2023-02-18T19:56:43.730Z,99527.63
2023-02-18T19:59:13.226Z,99527.44
2023-02-18T20:01:42.745Z,99530.91
2023-02-18T20:04:12.388Z,99526.91
2023-02-18T20:06:41.898Z,99522.47
2023-02-18T20:09:09.659Z,99517.28
2023-02-18T20:11:39.170Z,99533.00
2023-02-18T20:14:08.798Z,99540.25
2023-02-18T20:16:38.416Z,99529.38
2023-02-18T20:19:07.956Z,99512.06
2023-02-18T20:21:37.505Z,99505.03
2023-02-18T20:24:10.652Z,99498.84
2023-02-18T20:26:40.157Z,99505.72
2023-02-18T20:29:09.877Z,99502.41
2023-02-18T20:31:39.677Z,99487.06
2023-02-18T20:34:10.888Z,99482.88
2023-02-18T20:36:39.659Z,99483.81
2023-02-18T20:39:16.172Z,99483.81
2023-02-18T20:41:48.443Z,99487.63
2023-02-18T20:44:20.834Z,99486.38
2023-02-18T20:46:50.854Z,99497.75
2023-02-18T20:49:22.395Z,99509.25
2023-02-18T20:51:51.968Z,99519.56
2023-02-18T20:54:21.575Z,99522.69
2023-02-18T20:56:53.092Z,99522.31
2023-02-18T20:59:22.642Z,99526.00
2023-02-18T21:01:51.337Z,99525.56
2023-02-18T21:04:22.916Z,99535.28
2023-02-18T21:06:51.651Z,99547.22
2023-02-18T21:09:21.502Z,99538.41
2023-02-18T21:11:51.061Z,99543.28
2023-02-18T21:14:20.661Z,99532.19
2023-02-18T21:16:50.162Z,99535.84
2023-02-18T21:19:19.837Z,99541.63
2023-02-18T21:21:49.343Z,99538.81
2023-02-18T21:24:18.851Z,99538.94
2023-02-18T21:26:47.554Z,99546.59
2023-02-18T21:29:17.314Z,99545.00
2023-02-18T21:31:46.955Z,99543.28
2023-02-18T21:34:17.381Z,99547.28
2023-02-18T21:36:46.086Z,99550.75
2023-02-18T21:39:15.636Z,99547.06
2023-02-18T21:41:45.162Z,99552.66
2023-02-18T21:44:14.683Z,99545.44
2023-02-18T21:46:44.296Z,99554.63
2023-02-18T21:49:14.021Z,99544.19
2023-02-18T21:52:08.746Z,99554.25
2023-02-18T21:54:47.233Z,99555.31
2023-02-18T21:57:21.510Z,99557.16
2023-02-18T21:59:51.741Z,99551.00
2023-02-18T22:02:29.010Z,99554.72
2023-02-18T22:05:02.350Z,99558.19
2023-02-18T22:07:31.849Z,99553.41
2023-02-18T22:10:01.341Z,99549.25
2023-02-18T22:12:32.178Z,99556.91
2023-02-18T22:15:01.664Z,99552.22
2023-02-18T22:17:32.238Z,99545.81
2023-02-18T22:20:01.912Z,99545.44
2023-02-18T22:22:32.015Z,99557.16
2023-02-18T22:25:01.703Z,99557.47
2023-02-18T22:27:31.179Z,99552.66
2023-02-18T22:30:00.691Z,99548.97
2023-02-18T22:32:32.002Z,99546.84
2023-02-18T22:35:00.785Z,99551.44
2023-02-18T22:37:30.262Z,99572.72
2023-02-18T22:39:59.763Z,99564.78
2023-02-18T22:42:29.305Z,99569.69
2023-02-18T22:45:02.804Z,99580.78
2023-02-18T22:47:32.355Z,99584.59
2023-02-18T22:50:01.875Z,99580.38
2023-02-18T22:52:31.437Z,99577.44
2023-02-18T22:55:00.923Z,99583.72
2023-02-18T22:57:30.432Z,99581.25
2023-02-18T22:59:59.899Z,99584.69
2023-02-18T23:02:28.524Z,99596.69
2023-02-18T23:04:57.962Z,99594.69
2023-02-18T23:07:27.337Z,99581.47
2023-02-18T23:09:56.011Z,99589.72
2023-02-18T23:12:24.771Z,99582.69
2023-02-18T23:14:53.188Z,99581.44
2023-02-18T23:17:22.634Z,99579.88
2023-02-18T23:19:54.454Z,99576.81
2023-02-18T23:22:33.530Z,99574.69
2023-02-18T23:25:02.546Z,99571.72
2023-02-18T23:27:30.693Z,99563.50
2023-02-18T23:30:00.228Z,99578.09
2023-02-18T23:32:32.137Z,99574.00
2023-02-18T23:35:01.648Z,99578.09
2023-02-18T23:37:48.034Z,99562.19
2023-02-18T23:40:16.878Z,99575.28
2023-02-18T23:42:44.634Z,99570.16
2023-02-18T23:45:12.354Z,99575.94
2023-02-18T23:47:40.111Z,99579.03
2023-02-18T23:50:08.085Z,99571.47
2023-02-18T23:52:37.698Z,99570.69
2023-02-18T23:55:05.933Z,99576.44
2023-02-18T23:57:33.655Z,99582.22
